Time;durP1;ratioP1;P1;durP2;ratioP2;P2;SDS_P1;SDS_P2;PMS_P1;PMS_P2;Temp;Humidity;BMP_temperature;BMP_pressure;BME280_temperature;BME280_humidity;BME280_pressure;Samples;Min_cycle;Max_cycle;Signal;HPM_P1;HPM_P2
2022/05/25 00:01:22;;;;;;;4.23;3.83;;;;;;;12.99;100.00;95998.50;5034681;28;102659;-62
2022/05/25 00:03:49;;;;;;;5.70;4.70;;;;;;;12.84;100.00;96000.41;5030651;28;101876;-62
2022/05/25 00:06:16;;;;;;;5.93;5.43;;;;;;;12.77;100.00;96000.72;5032374;28;102303;-62
2022/05/25 00:08:44;;;;;;;6.37;5.50;;;;;;;12.71;100.00;96001.78;5031467;27;102822;-62
2022/05/25 00:11:11;;;;;;;6.43;5.83;;;;;;;12.66;100.00;95999.16;5032053;27;101894;-61
2022/05/25 00:13:40;;;;;;;6.87;5.87;;;;;;;12.69;100.00;95992.44;5031776;27;102350;-62
2022/05/25 00:16:07;;;;;;;6.30;5.77;;;;;;;12.66;100.00;96004.47;5030854;27;102581;-62
2022/05/25 00:18:34;;;;;;;6.60;6.00;;;;;;;12.64;100.00;96000.50;5031916;27;101801;-62
2022/05/25 00:21:00;;;;;;;8.20;7.40;;;;;;;12.70;100.00;96002.06;5030435;28;104027;-62
2022/05/25 00:23:27;;;;;;;10.33;8.50;;;;;;;12.68;100.00;96009.53;5033244;28;105354;-62
2022/05/25 00:25:54;;;;;;;10.17;9.00;;;;;;;12.69;100.00;96011.13;5030072;28;104814;-62
2022/05/25 00:28:21;;;;;;;10.93;10.03;;;;;;;12.67;100.00;96015.94;5029811;28;105825;-62
2022/05/25 00:30:50;;;;;;;12.00;10.93;;;;;;;12.70;100.00;96015.41;5063278;27;101806;-62
2022/05/25 00:33:17;;;;;;;13.60;12.30;;;;;;;12.69;100.00;96019.13;5029093;28;104152;-61
2022/05/25 00:35:44;;;;;;;14.43;12.93;;;;;;;12.64;100.00;96009.28;5028661;28;105587;-62
2022/05/25 00:38:11;;;;;;;13.57;12.37;;;;;;;12.72;100.00;96010.59;5029330;28;102155;-62
2022/05/25 00:40:41;;;;;;;14.47;13.23;;;;;;;12.64;100.00;96008.50;5029276;28;103589;-62
2022/05/25 00:43:09;;;;;;;13.77;12.47;;;;;;;12.68;100.00;96012.19;5028454;28;103829;-62
2022/05/25 00:45:41;;;;;;;13.50;12.30;;;;;;;12.71;100.00;95990.31;5033949;28;101867;-62
2022/05/25 00:48:15;;;;;;;13.43;12.23;;;;;;;12.75;100.00;96005.50;5028598;28;105567;-62
2022/05/25 00:53:26;;;;;;;13.47;12.27;;;;;;;12.87;100.00;95989.97;5028868;28;104941;-62
2022/05/25 00:55:55;;;;;;;13.13;12.00;;;;;;;12.86;100.00;95976.91;5028317;28;106813;-62
2022/05/25 00:58:24;;;;;;;14.40;13.00;;;;;;;12.83;100.00;95988.13;5027260;28;102435;-62
2022/05/25 01:00:51;;;;;;;14.57;13.17;;;;;;;12.86;100.00;95990.25;5009084;27;105724;-62
2022/05/25 01:03:19;;;;;;;14.13;12.83;;;;;;;12.86;100.00;95998.28;5018995;27;105710;-62
2022/05/25 01:05:55;;;;;;;14.70;13.20;;;;;;;12.87;100.00;96005.19;5026540;27;102052;-62
2022/05/25 01:08:39;;;;;;;13.37;12.07;;;;;;;12.90;100.00;96010.78;5010141;28;105611;-62
2022/05/25 01:11:18;;;;;;;14.07;12.67;;;;;;;12.86;100.00;96019.63;5032845;27;102089;-62
2022/05/25 01:13:52;;;;;;;13.73;12.40;;;;;;;12.91;100.00;96011.59;5042460;27;106072;-62
2022/05/25 01:16:29;;;;;;;14.10;12.70;;;;;;;12.93;100.00;96004.88;5024129;27;102695;-61
2022/05/25 01:19:13;;;;;;;14.37;13.00;;;;;;;12.97;100.00;95999.84;5008711;28;102025;-62
2022/05/25 01:21:48;;;;;;;14.00;12.60;;;;;;;12.95;100.00;95999.28;5020201;27;102845;-62
2022/05/25 01:24:26;;;;;;;14.03;12.63;;;;;;;12.99;100.00;95998.50;5028296;28;102683;-62
2022/05/25 01:27:26;;;;;;;13.63;12.33;;;;;;;12.99;100.00;95992.34;5027557;27;102579;-62
2022/05/25 01:30:04;;;;;;;13.47;12.17;;;;;;;13.01;100.00;96001.69;5029663;27;102238;-62
2022/05/25 01:32:38;;;;;;;16.47;13.20;;;;;;;13.01;100.00;95995.53;5031281;28;106657;-62
2022/05/25 01:35:15;;;;;;;14.90;13.47;;;;;;;12.93;100.00;96006.75;5029985;28;102428;-62
2022/05/25 01:37:47;;;;;;;14.90;13.60;;;;;;;12.87;100.00;96002.53;5029633;27;102720;-62
2022/05/25 01:40:22;;;;;;;17.03;13.57;;;;;;;12.91;100.00;96009.69;5029671;27;101693;-62
2022/05/25 01:42:53;;;;;;;15.23;13.73;;;;;;;12.92;100.00;96005.97;5030041;28;102432;-62
2022/05/25 01:45:23;;;;;;;14.47;13.13;;;;;;;12.92;100.00;96003.28;5027836;28;104083;-62
2022/05/25 01:47:51;;;;;;;15.83;14.43;;;;;;;12.91;100.00;96006.25;5029732;28;101768;-62
2022/05/25 01:50:24;;;;;;;14.90;13.60;;;;;;;12.98;100.00;96012.13;5029575;28;102646;-61
2022/05/25 01:52:56;;;;;;;17.03;15.23;;;;;;;12.99;100.00;96019.84;5032691;28;102824;-62
2022/05/25 01:55:27;;;;;;;14.83;13.47;;;;;;;13.00;100.00;96021.44;5029635;28;102279;-62
2022/05/25 01:57:58;;;;;;;15.87;14.37;;;;;;;12.95;100.00;96013.44;5027423;28;105749;-62
2022/05/25 02:00:36;;;;;;;17.13;15.53;;;;;;;12.89;100.00;96011.84;5028067;28;102233;-62
2022/05/25 02:06:04;;;;;;;15.27;13.67;;;;;;;12.83;100.00;96014.81;5027533;28;105978;-62
2022/05/25 02:08:41;;;;;;;16.30;14.57;;;;;;;12.83;100.00;96020.16;5027890;28;101856;-62
2022/05/25 02:11:16;;;;;;;16.63;14.97;;;;;;;12.79;100.00;96013.75;5028183;28;103612;-62
2022/05/25 02:13:55;;;;;;;17.43;15.73;;;;;;;12.79;100.00;96014.56;5027461;28;105469;-62
2022/05/25 02:16:36;;;;;;;16.40;14.87;;;;;;;12.78;100.00;96022.84;5033319;27;101917;-62
2022/05/25 02:19:09;;;;;;;15.73;14.27;;;;;;;12.72;100.00;96023.94;5028935;28;102585;-62
2022/05/25 02:21:43;;;;;;;16.40;14.80;;;;;;;12.70;100.00;96016.19;5027975;28;101866;-62
2022/05/25 02:24:15;;;;;;;15.17;12.27;;;;;;;12.69;100.00;96021.78;5027864;28;105117;-62
2022/05/25 02:26:48;;;;;;;14.67;13.27;;;;;;;12.67;100.00;96023.94;5027365;28;103818;-61
2022/05/25 02:29:20;;;;;;;15.80;14.30;;;;;;;12.68;100.00;96017.53;5027930;28;101815;-61
2022/05/25 02:31:53;;;;;;;16.00;14.23;;;;;;;12.67;100.00;96023.94;5027897;28;104829;-62
2022/05/25 02:34:22;;;;;;;16.10;14.50;;;;;;;12.70;100.00;96026.06;5027105;28;104132;-61
2022/05/25 02:36:50;;;;;;;14.77;13.37;;;;;;;12.67;100.00;96015.94;5027824;28;101940;-62
2022/05/25 02:39:17;;;;;;;16.37;14.67;;;;;;;12.74;100.00;96016.44;5030290;28;105238;-61
2022/05/25 02:41:49;;;;;;;15.37;13.97;;;;;;;12.73;100.00;96022.84;5027772;28;101948;-61
2022/05/25 02:44:17;;;;;;;15.53;13.00;;;;;;;12.72;100.00;96032.75;5027772;28;105124;-61
2022/05/25 02:46:44;;;;;;;15.20;13.70;;;;;;;12.77;100.00;96042.59;5028447;27;104834;-62
2022/05/25 02:49:14;;;;;;;14.30;12.90;;;;;;;12.66;100.00;96041.03;5027389;28;101926;-62
2022/05/25 02:51:41;;;;;;;14.20;12.37;;;;;;;12.66;100.00;96049.03;5027472;28;103949;-61
2022/05/25 02:54:09;;;;;;;13.60;12.30;;;;;;;12.69;100.00;96045.78;5028449;27;102613;-61
2022/05/25 02:56:37;;;;;;;13.53;12.33;;;;;;;12.69;100.00;96051.13;5027214;28;101968;-62
2022/05/25 02:59:05;;;;;;;15.53;13.93;;;;;;;12.59;100.00;96045.84;5028720;28;102480;-62
2022/05/25 03:01:32;;;;;;;14.33;12.83;;;;;;;12.55;100.00;96058.13;5031263;28;102762;-61
2022/05/25 03:03:59;;;;;;;14.43;13.03;;;;;;;12.62;100.00;96061.28;5029008;27;102317;-61
2022/05/25 03:06:28;;;;;;;15.17;13.77;;;;;;;12.64;100.00;96064.50;5028109;28;103189;-61
2022/05/25 03:08:55;;;;;;;15.60;14.07;;;;;;;12.65;100.00;96071.44;5061341;27;101897;-61
2022/05/25 03:11:22;;;;;;;14.47;13.17;;;;;;;12.68;100.00;96066.34;5027426;28;105032;-61
2022/05/25 03:13:49;;;;;;;14.43;13.13;;;;;;;12.72;100.00;96072.75;5026862;28;105344;-61
2022/05/25 03:16:18;;;;;;;14.27;12.97;;;;;;;12.67;100.00;96072.78;5027202;28;102000;-61
2022/05/25 03:18:45;;;;;;;15.53;13.80;;;;;;;12.69;100.00;96083.16;5027170;28;104982;-61
2022/05/25 03:21:12;;;;;;;15.40;14.00;;;;;;;12.71;100.00;96081.03;5026759;28;104305;-61
2022/05/25 03:23:41;;;;;;;15.30;13.80;;;;;;;12.67;100.00;96094.13;5030574;28;101991;-62
2022/05/25 03:26:08;;;;;;;14.70;13.30;;;;;;;12.66;100.00;96091.72;5026665;28;105620;-61
2022/05/25 03:28:36;;;;;;;14.03;12.63;;;;;;;12.65;100.00;96098.13;5026995;28;101978;-62
2022/05/25 03:31:04;;;;;;;13.33;12.13;;;;;;;12.62;100.00;96096.78;5027156;28;105576;-62
2022/05/25 03:33:32;;;;;;;14.53;13.17;;;;;;;12.62;100.00;96099.47;5027796;28;102988;-62
2022/05/25 03:35:59;;;;;;;14.73;13.30;;;;;;;12.62;100.00;96096.78;5027182;28;101824;-62
2022/05/25 03:38:27;;;;;;;14.40;13.10;;;;;;;12.67;100.00;96086.09;5026781;28;105177;-62
2022/05/25 03:40:56;;;;;;;14.57;13.07;;;;;;;12.66;100.00;96081.84;5027755;28;104546;-61
2022/05/25 03:43:33;;;;;;;14.40;13.03;;;;;;;12.73;100.00;96076.22;5026924;28;102635;-61
2022/05/25 03:46:00;;;;;;;14.37;13.07;;;;;;;12.72;100.00;96082.63;5029903;28;105126;-61
2022/05/25 03:48:27;;;;;;;15.30;13.90;;;;;;;12.74;100.00;96085.81;5026809;28;102031;-61
2022/05/25 03:50:54;;;;;;;13.70;12.50;;;;;;;12.77;100.00;96090.63;5028912;28;105501;-61
2022/05/25 03:53:21;;;;;;;14.23;12.93;;;;;;;12.82;100.00;96090.59;5029943;28;104341;-62
2022/05/25 03:55:48;;;;;;;14.43;12.97;;;;;;;12.78;100.00;96089.53;5031543;28;101942;-62
2022/05/25 03:58:17;;;;;;;12.93;11.63;;;;;;;12.71;100.00;96092.47;5029951;28;105286;-62
2022/05/25 04:00:44;;;;;;;13.73;12.40;;;;;;;12.69;100.00;96097.31;5028917;28;103888;-61
2022/05/25 04:03:14;;;;;;;13.40;11.97;;;;;;;12.74;100.00;96097.28;5031535;28;101783;-62
2022/05/25 04:05:44;;;;;;;11.87;10.77;;;;;;;12.78;100.00;96106.34;5034291;28;102617;-61
2022/05/25 04:08:11;;;;;;;12.43;11.13;;;;;;;12.85;100.00;96122.88;5030113;28;101813;-61
2022/05/25 04:10:39;;;;;;;11.97;10.60;;;;;;;12.81;100.00;96123.69;5029901;28;104770;-61
2022/05/25 04:13:06;;;;;;;12.07;10.97;;;;;;;12.80;100.00;96122.88;5029475;28;105433;-61
2022/05/25 04:15:36;;;;;;;11.33;10.27;;;;;;;12.86;100.00;96126.34;5029993;28;101996;-61
2022/05/25 04:18:03;;;;;;;10.73;9.83;;;;;;;12.93;100.00;96126.88;5029733;28;105132;-61
2022/05/25 04:20:32;;;;;;;12.07;10.87;;;;;;;12.95;100.00;96130.06;5031563;28;102512;-61
2022/05/25 04:22:59;;;;;;;10.90;9.87;;;;;;;13.00;100.00;96127.41;5029880;28;102211;-62
2022/05/25 04:25:27;;;;;;;11.20;10.20;;;;;;;12.99;100.00;96136.50;5030723;28;104082;-62
2022/05/25 04:27:56;;;;;;;9.50;8.70;;;;;;;12.92;100.00;96143.97;5032606;28;103801;-61
2022/05/25 04:30:25;;;;;;;8.93;8.23;;;;;;;12.98;100.00;96145.56;5064484;27;105509;-62
2022/05/25 04:32:54;;;;;;;9.67;8.87;;;;;;;12.93;100.00;96145.56;5030019;28;105807;-62
2022/05/25 04:35:22;;;;;;;10.30;9.23;;;;;;;12.93;100.00;96149.00;5030353;28;102342;-62
2022/05/25 04:37:55;;;;;;;10.37;9.50;;;;;;;12.93;100.00;96154.34;5030511;28;104063;-62
2022/05/25 04:40:27;;;;;;;9.73;8.83;;;;;;;12.97;100.00;96157.31;5029706;28;105688;-61
2022/05/25 04:42:55;;;;;;;9.43;8.63;;;;;;;13.00;100.00;96162.09;5030545;28;101786;-61
2022/05/25 04:45:25;;;;;;;9.60;8.77;;;;;;;12.93;100.00;96161.56;5030318;28;106373;-62
2022/05/25 04:47:54;;;;;;;9.40;8.67;;;;;;;12.98;100.00;96167.72;5029884;28;104150;-62
2022/05/25 04:50:23;;;;;;;8.90;8.10;;;;;;;13.00;100.00;96167.44;5033711;28;101874;-62
2022/05/25 04:52:50;;;;;;;9.70;8.80;;;;;;;13.01;100.00;96169.03;5029016;28;106061;-62
2022/05/25 04:58:36;;;;;;;8.37;7.67;;;;;;;12.97;100.00;96170.66;5031216;28;102567;-61
2022/05/25 05:01:04;;;;;;;7.80;7.13;;;;;;;13.05;100.00;96176.25;5028904;27;106397;-61
2022/05/25 05:03:34;;;;;;;8.03;7.43;;;;;;;13.04;100.00;96173.84;5030289;28;101992;-62
2022/05/25 05:06:01;;;;;;;6.67;6.17;;;;;;;13.06;100.00;96179.72;5030553;28;105268;-62
2022/05/25 05:08:28;;;;;;;7.37;6.67;;;;;;;13.14;100.00;96176.50;5029843;28;105294;-62
2022/05/25 05:10:57;;;;;;;3.70;3.40;;;;;;;12.90;100.00;96180.78;5030438;28;101995;-62
2022/05/25 05:13:24;;;;;;;3.13;2.90;;;;;;;12.98;100.00;96180.28;5033334;28;105704;-62
2022/05/25 05:15:53;;;;;;;3.67;3.40;;;;;;;12.91;100.00;96177.06;5030056;28;101954;-62
2022/05/25 05:18:23;;;;;;;3.40;3.20;;;;;;;12.89;100.00;96187.19;5029667;28;105227;-62
2022/05/25 05:21:15;;;;;;;3.97;3.33;;;;;;;12.89;100.00;96189.84;5024414;28;101967;-62
2022/05/25 05:24:04;;;;;;;3.20;3.00;;;;;;;12.95;100.00;96199.44;5030209;28;101940;-62
2022/05/25 05:26:32;;;;;;;3.50;3.30;;;;;;;12.99;100.00;96200.56;5030095;28;104005;-62
2022/05/25 05:28:59;;;;;;;3.90;3.60;;;;;;;12.94;100.00;96201.34;5030873;27;102634;-62
2022/05/25 05:31:25;;;;;;;3.63;3.33;;;;;;;12.99;100.00;96213.91;5029993;28;101930;-62
2022/05/25 05:34:45;;;;;;;4.03;2.77;;;;;;;12.99;100.00;96213.91;5029746;28;103571;-62
2022/05/25 05:37:17;;;;;;;3.00;2.80;;;;;;;12.93;100.00;96221.06;5034006;28;104660;-62
2022/05/25 05:39:48;;;;;;;2.67;2.50;;;;;;;12.90;100.00;96221.63;5030124;28;104818;-62
2022/05/25 05:42:18;;;;;;;3.47;2.50;;;;;;;12.86;100.00;96230.44;5029417;28;105544;-62
2022/05/25 05:45:07;;;;;;;2.50;2.03;;;;;;;12.94;100.00;96225.34;5029939;28;101944;-62
2022/05/25 05:47:39;;;;;;;2.33;2.10;;;;;;;13.04;100.00;96225.34;5063871;27;105477;-62
2022/05/25 05:50:07;;;;;;;3.33;3.13;;;;;;;13.05;100.00;96236.84;5029176;28;103929;-62
2022/05/25 05:52:37;;;;;;;5.00;4.60;;;;;;;13.01;100.00;96243.78;5029612;28;101916;-62
2022/05/25 05:55:11;;;;;;;5.43;4.93;;;;;;;12.99;100.00;96256.59;5029305;28;103644;-62
2022/05/25 05:57:42;;;;;;;5.50;5.03;;;;;;;13.00;100.00;96263.53;5028571;28;103585;-62
2022/05/25 06:00:11;;;;;;;6.77;6.17;;;;;;;13.02;100.00;96269.44;5033752;28;101777;-62
2022/05/25 06:02:41;;;;;;;6.47;5.23;;;;;;;13.00;100.00;96274.22;5030468;27;102722;-62
2022/05/25 06:05:17;;;;;;;5.30;4.73;;;;;;;13.09;100.00;96275.28;5029258;28;101950;-62
2022/05/25 06:07:46;;;;;;;6.47;5.30;;;;;;;13.15;100.00;96284.88;5029524;28;105565;-62
2022/05/25 06:10:13;;;;;;;5.83;5.33;;;;;;;13.16;100.00;96291.81;5029814;28;102555;-62
2022/05/25 06:12:40;;;;;;;5.00;4.50;;;;;;;13.15;100.00;96290.22;5029729;27;101993;-62
2022/05/25 06:21:27;;;;;;;4.27;3.97;;;;;;;12.93;100.00;96313.69;4972045;28;103411;-62
2022/05/25 06:24:35;;;;;;;4.50;4.20;;;;;;;12.80;100.00;96319.56;5002368;27;102635;-62
2022/05/25 06:27:04;;;;;;;4.00;3.53;;;;;;;12.74;100.00;96323.28;5030900;28;102048;-62
2022/05/25 06:29:31;;;;;;;3.50;3.30;;;;;;;12.68;100.00;96327.81;5030615;28;102837;-62
2022/05/25 06:31:57;;;;;;;4.73;3.50;;;;;;;12.77;100.00;96330.75;5029643;28;103121;-62
2022/05/25 06:34:24;;;;;;;3.60;3.30;;;;;;;12.81;100.00;96343.31;5029156;28;102118;-62
2022/05/25 06:36:51;;;;;;;4.07;3.30;;;;;;;12.77;100.00;96344.09;5028995;28;105746;-62
2022/05/25 06:39:18;;;;;;;2.63;2.53;;;;;;;12.75;100.00;96340.91;5029585;27;102684;-62
2022/05/25 06:41:47;;;;;;;3.13;2.80;;;;;;;12.68;100.00;96346.50;5030438;27;101931;-62
2022/05/25 06:44:19;;;;;;;2.67;2.47;;;;;;;12.63;100.00;96356.34;5032910;28;102595;-62
2022/05/25 06:46:48;;;;;;;3.53;2.80;;;;;;;12.69;100.00;96366.78;5028767;28;101915;-62
2022/05/25 06:49:17;;;;;;;3.87;3.00;;;;;;;12.79;100.00;96374.78;5030404;28;102898;-62
2022/05/25 06:51:44;;;;;;;2.90;2.70;;;;;;;12.87;100.00;96378.81;5028128;28;105891;-62
2022/05/25 06:54:59;;;;;;;2.73;2.53;;;;;;;12.90;100.00;96391.63;5030398;27;101921;-63
2022/05/25 06:57:33;;;;;;;2.10;2.00;;;;;;;12.72;100.00;96387.59;5011836;28;105771;-62
2022/05/25 07:00:01;;;;;;;2.63;2.37;;;;;;;12.59;100.00;96392.63;5027944;28;105379;-62
2022/05/25 07:02:28;;;;;;;4.13;3.13;;;;;;;12.80;100.00;96403.09;5030392;27;101922;-62
2022/05/25 07:05:21;;;;;;;3.23;2.47;;;;;;;13.03;100.00;96405.28;5028751;28;104803;-62
2022/05/25 07:07:48;;;;;;;2.93;2.73;;;;;;;13.07;100.00;96405.56;5032233;27;105008;-62
2022/05/25 07:10:15;;;;;;;2.90;2.60;;;;;;;12.89;100.00;96404.19;5028820;28;105097;-62
2022/05/25 07:12:43;;;;;;;2.50;2.30;;;;;;;12.95;100.00;96415.66;5027895;28;104689;-62
2022/05/25 07:15:21;;;;;;;2.57;2.47;;;;;;;13.01;100.00;96411.94;5028523;28;101962;-62
2022/05/25 07:17:48;;;;;;;3.83;3.20;;;;;;;13.15;100.00;96418.38;5029752;28;102586;-63
2022/05/25 07:20:16;;;;;;;4.03;2.90;;;;;;;13.42;100.00;96410.94;5026500;28;104959;-61
2022/05/25 07:22:43;;;;;;;4.17;3.30;;;;;;;13.55;100.00;96421.06;5028510;28;101976;-61
2022/05/25 07:25:31;;;;;;;4.23;3.80;;;;;;;13.66;100.00;96428.81;5029927;27;104894;-62
2022/05/25 07:28:08;;;;;;;4.37;4.03;;;;;;;13.71;100.00;96414.66;5031194;28;106014;-61
2022/05/25 07:30:35;;;;;;;3.80;3.60;;;;;;;13.81;100.00;96417.31;5049074;27;101833;-61
2022/05/25 07:33:02;;;;;;;4.17;3.87;;;;;;;13.85;100.00;96416.50;5011219;28;105950;-61
2022/05/25 07:38:53;;;;;;;5.23;4.73;;;;;;;14.26;100.00;96418.06;5011523;28;105149;-61
2022/05/25 07:41:21;;;;;;;5.80;5.37;;;;;;;14.21;100.00;96431.44;5011117;28;104277;-61
2022/05/25 07:47:37;;;;;;;4.43;4.13;;;;;;;14.14;100.00;96438.09;5030073;28;102013;-61
2022/05/25 07:50:06;;;;;;;5.10;4.77;;;;;;;14.01;100.00;96444.03;5031063;28;103841;-61
2022/05/25 07:52:35;;;;;;;4.50;4.20;;;;;;;13.93;100.00;96447.22;5031823;28;101985;-61
2022/05/25 07:58:27;;;;;;;4.20;3.80;;;;;;;14.30;100.00;96453.06;5032541;27;101869;-62
2022/05/25 08:00:56;;;;;;;4.37;3.97;;;;;;;14.23;100.00;96444.53;5031018;28;105174;-61
2022/05/25 08:06:10;;;;;;;4.23;3.90;;;;;;;14.08;100.00;96450.72;5033124;27;102040;-61
2022/05/25 08:08:38;;;;;;;4.13;3.83;;;;;;;14.22;100.00;96457.09;5032852;28;102523;-61
2022/05/25 08:11:09;;;;;;;5.13;4.03;;;;;;;14.29;100.00;96465.63;5031973;27;102663;-61
2022/05/25 08:13:43;;;;;;;4.47;3.87;;;;;;;14.09;100.00;96464.84;5030854;28;101894;-61
2022/05/25 08:16:10;;;;;;;4.80;4.40;;;;;;;14.13;100.00;96465.94;5032624;28;104465;-62
2022/05/25 08:18:39;;;;;;;4.97;4.47;;;;;;;14.17;100.00;96469.69;5034905;27;101977;-62
2022/05/25 08:21:07;;;;;;;3.67;3.37;;;;;;;14.32;100.00;96477.66;5032492;28;102927;-61
2022/05/25 08:23:34;;;;;;;3.47;3.27;;;;;;;14.12;100.00;96467.78;5030473;28;104174;-61
2022/05/25 08:26:01;;;;;;;3.53;3.33;;;;;;;14.41;100.00;96471.53;5030525;28;102015;-62
2022/05/25 08:28:28;;;;;;;3.53;3.23;;;;;;;14.12;100.00;96472.34;5030528;28;104989;-62
2022/05/25 08:30:55;;;;;;;3.20;3.00;;;;;;;14.06;100.00;96476.13;5030381;28;105066;-62
2022/05/25 08:33:24;;;;;;;3.40;3.20;;;;;;;14.00;100.00;96475.31;5031956;28;102056;-61
2022/05/25 08:35:52;;;;;;;3.80;3.20;;;;;;;13.83;100.00;96479.31;5030089;27;105208;-61
2022/05/25 08:38:21;;;;;;;3.80;3.50;;;;;;;14.12;100.00;96480.38;5033662;28;103743;-61
2022/05/25 08:40:49;;;;;;;3.43;3.13;;;;;;;14.21;100.00;96478.78;5030613;28;104385;-61
2022/05/25 08:43:20;;;;;;;3.70;3.50;;;;;;;14.28;100.00;96477.41;5029416;28;103838;-61
2022/05/25 08:46:24;;;;;;;4.00;3.60;;;;;;;14.64;100.00;96475.44;5029854;28;102115;-61
2022/05/25 08:48:52;;;;;;;3.50;3.13;;;;;;;14.43;100.00;96474.72;5030336;28;105181;-61
2022/05/25 08:51:23;;;;;;;4.13;3.80;;;;;;;14.47;100.00;96478.44;5030009;28;105243;-63
2022/05/25 08:54:10;;;;;;;3.90;3.60;;;;;;;14.39;100.00;96480.88;5029969;28;102364;-62
2022/05/25 08:56:42;;;;;;;3.80;3.50;;;;;;;14.45;100.00;96477.91;5031972;28;102407;-62
2022/05/25 08:59:13;;;;;;;4.33;4.03;;;;;;;14.41;100.00;96482.22;5029160;28;105406;-63
2022/05/25 09:01:45;;;;;;;4.03;3.40;;;;;;;14.39;100.00;96484.34;5032859;28;102208;-63
2022/05/25 09:04:33;;;;;;;6.33;3.50;;;;;;;14.66;100.00;96489.38;5029072;28;105903;-62
2022/05/25 09:07:11;;;;;;;4.47;4.13;;;;;;;15.14;100.00;96493.94;5028267;28;102241;-62
2022/05/25 09:09:44;;;;;;;3.90;3.60;;;;;;;15.07;100.00;96488.09;5029707;28;105347;-61
2022/05/25 09:12:29;;;;;;;4.10;3.70;;;;;;;15.10;100.00;96487.56;5029485;28;105728;-61
2022/05/25 09:15:11;;;;;;;3.53;3.33;;;;;;;15.27;100.00;96485.31;4989205;28;102052;-62
2022/05/25 09:17:43;;;;;;;3.23;3.03;;;;;;;15.06;100.00;96487.31;4968978;28;105186;-62
2022/05/25 09:20:13;;;;;;;3.37;2.90;;;;;;;15.32;100.00;96479.94;4968868;28;102691;-62
2022/05/25 09:22:43;;;;;;;2.70;2.30;;;;;;;15.35;100.00;96476.72;4953048;28;101930;-62
2022/05/25 09:26:01;;;;;;;2.80;2.60;;;;;;;15.73;100.00;96478.59;4955917;28;105086;-62
2022/05/25 09:28:37;;;;;;;2.80;2.57;;;;;;;16.30;100.00;96474.03;4972485;28;102053;-62
2022/05/25 09:31:06;;;;;;;2.73;2.53;;;;;;;16.11;100.00;96465.13;4989130;28;104843;-62
2022/05/25 09:37:30;;;;;;;2.10;2.00;;;;;;;16.47;100.00;96470.97;4986202;28;101810;-62
2022/05/25 09:40:02;;;;;;;2.13;1.90;;;;;;;16.34;100.00;96474.28;4988964;28;105530;-62
2022/05/25 09:42:34;;;;;;;1.80;1.70;;;;;;;16.25;100.00;96466.03;4971470;28;105275;-63
2022/05/25 09:45:19;;;;;;;1.80;1.70;;;;;;;16.50;100.00;96462.31;4972104;28;101863;-63
2022/05/25 09:47:49;;;;;;;1.80;1.70;;;;;;;16.26;100.00;96462.31;4951683;28;105128;-62
2022/05/25 09:50:32;;;;;;;2.33;1.90;;;;;;;16.77;100.00;96462.53;4956872;28;103684;-61
2022/05/25 09:53:04;;;;;;;2.00;1.90;;;;;;;16.33;100.00;96472.69;5008145;28;103830;-61
2022/05/25 09:55:40;;;;;;;1.80;1.70;;;;;;;16.39;100.00;96466.19;5029028;28;105475;-61
2022/05/25 09:58:14;;;;;;;2.30;1.90;;;;;;;16.58;100.00;96467.06;5029636;28;101818;-62
2022/05/25 10:00:57;;;;;;;1.80;1.70;;;;;;;16.21;100.00;96470.41;5029088;28;104940;-62
2022/05/25 10:03:36;;;;;;;1.83;1.27;;;;;;;16.48;100.00;96469.88;5030134;28;102895;-62
2022/05/25 10:06:20;;;;;;;2.63;1.60;;;;;;;16.53;100.00;96467.94;5029431;28;101873;-62
2022/05/25 10:08:51;;;;;;;1.87;1.60;;;;;;;16.63;100.00;96459.75;5029171;28;104358;-62
2022/05/25 10:11:32;;;;;;;2.10;1.60;;;;;;;17.01;100.00;96458.75;5028730;28;104160;-62
2022/05/25 10:14:17;;;;;;;1.50;1.40;;;;;;;17.52;100.00;96464.25;5032150;28;102106;-62
2022/05/25 10:16:44;;;;;;;1.70;1.43;;;;;;;17.36;100.00;96465.50;5028593;28;104365;-62
2022/05/25 10:19:13;;;;;;;2.37;1.60;;;;;;;17.37;100.00;96469.81;5030542;28;101889;-62
2022/05/25 10:21:41;;;;;;;3.20;1.50;;;;;;;17.14;100.00;96476.03;5029101;28;105618;-63
2022/05/25 10:24:38;;;;;;;1.40;1.30;;;;;;;16.68;100.00;96470.44;5028409;28;105567;-62
2022/05/25 10:27:24;;;;;;;2.20;1.57;;;;;;;16.39;100.00;96474.25;5029152;28;101892;-62
2022/05/25 10:38:40;;;;;;;1.80;1.70;;;;;;;16.43;100.00;96477.97;5009618;28;102663;-62
2022/05/25 10:47:28;;;;;;;2.20;1.50;;;;;;;17.25;100.00;96464.06;5029496;27;102841;-62
2022/05/25 10:49:55;;;;;;;1.50;1.40;;;;;;;17.52;100.00;96458.84;5030298;28;103109;-62
2022/05/25 10:52:33;;;;;;;1.70;1.60;;;;;;;18.17;100.00;96463.16;5030228;27;102482;-62
2022/05/25 10:55:32;;;;;;;1.57;1.37;;;;;;;18.59;100.00;96462.97;5029752;28;102549;-62
2022/05/25 11:01:36;;;;;;;2.03;1.20;;;;;;;18.92;100.00;96467.16;5034561;28;105307;-62
2022/05/25 11:04:53;;;;;;;1.73;1.40;;;;;;;19.40;100.00;96457.53;5031989;28;101991;-62
2022/05/25 11:07:29;;;;;;;1.20;1.10;;;;;;;19.85;100.00;96459.94;5033711;28;102573;-62
2022/05/25 11:10:20;;;;;;;1.20;1.20;;;;;;;19.83;100.00;96464.06;5033130;28;102819;-62
2022/05/25 11:13:02;;;;;;;1.33;1.23;;;;;;;20.10;100.00;96466.66;5031729;28;101842;-62
2022/05/25 11:16:02;;;;;;;1.30;1.20;;;;;;;19.29;100.00;96461.53;5032194;28;105146;-62
2022/05/25 11:18:54;;;;;;;1.40;1.30;;;;;;;19.52;100.00;96457.78;5031146;28;105319;-62
2022/05/25 11:21:32;;;;;;;1.80;1.33;;;;;;;19.36;100.00;96472.69;5033167;27;102043;-62
2022/05/25 11:24:16;;;;;;;1.70;1.30;;;;;;;18.42;100.00;96465.44;5031766;28;105570;-62
2022/05/25 11:30:12;;;;;;;2.37;1.50;;;;;;;18.76;100.00;96463.16;5031784;28;104045;-62
2022/05/25 11:33:01;;;;;;;1.50;1.40;;;;;;;18.95;100.00;96466.53;5030980;28;103898;-62
2022/05/25 11:39:29;;;;;;;1.10;1.10;;;;;;;20.36;100.00;96448.66;5029752;28;101945;-62
2022/05/25 11:42:13;;;;;;;1.10;1.10;;;;;;;20.07;100.00;96453.75;5032363;28;103251;-62
2022/05/25 11:45:19;;;;;;;1.30;1.27;;;;;;;20.30;100.00;96449.91;5031258;28;102333;-62
2022/05/25 11:48:27;;;;;;;1.07;1.03;;;;;;;21.06;100.00;96454.84;5031415;28;105359;-62
2022/05/25 11:51:04;;;;;;;1.73;1.10;;;;;;;21.14;100.00;96459.50;5031902;28;103200;-62
2022/05/25 11:53:57;;;;;;;1.37;1.27;;;;;;;20.86;100.00;96461.59;5036373;28;102156;-62
2022/05/25 11:56:47;;;;;;;1.20;1.20;;;;;;;20.87;100.00;96457.00;5032203;28;102654;-62
2022/05/25 11:59:29;;;;;;;1.20;1.20;;;;;;;20.72;100.00;96465.53;5032437;27;102005;-62
2022/05/25 12:02:10;;;;;;;1.40;1.13;;;;;;;20.67;100.00;96462.97;5032728;27;104436;-62
2022/05/25 12:05:08;;;;;;;1.33;1.30;;;;;;;20.37;100.00;96461.06;5030631;28;103246;-62
2022/05/25 12:07:56;;;;;;;1.47;1.37;;;;;;;20.43;100.00;96468.75;5032554;27;101754;-62
2022/05/25 12:10:31;;;;;;;1.13;1.03;;;;;;;20.28;100.00;96466.44;5029973;27;103781;-62
2022/05/25 12:13:06;;;;;;;1.30;1.20;;;;;;;20.16;100.00;96458.09;5031719;28;103132;-62
2022/05/25 12:15:53;;;;;;;1.47;1.37;;;;;;;19.12;100.00;96461.34;5031374;28;101813;-62
2022/05/25 12:18:26;;;;;;;1.33;1.20;;;;;;;19.38;100.00;96465.91;5033588;28;103577;-62
2022/05/25 12:21:01;;;;;;;2.30;0.87;;;;;;;19.86;100.00;96460.72;5030914;28;102117;-62
2022/05/25 12:23:32;;;;;;;1.20;1.20;;;;;;;19.22;100.00;96461.94;5030898;28;104974;-62
2022/05/25 12:26:03;;;;;;;1.70;1.40;;;;;;;19.16;100.00;96451.53;5030167;28;105911;-62
2022/05/25 12:29:10;;;;;;;2.00;1.60;;;;;;;19.45;100.00;96460.09;5030756;28;101814;-60
2022/05/25 12:31:40;;;;;;;1.63;1.20;;;;;;;19.54;100.00;96460.94;5030688;28;105097;-68
2022/05/25 12:34:30;;;;;;;1.30;1.20;;;;;;;19.63;100.00;96462.59;5029701;28;103859;-61
2022/05/25 12:36:59;;;;;;;1.50;1.40;;;;;;;19.19;100.00;96459.03;5030707;28;102432;-62
2022/05/25 12:40:01;;;;;;;1.70;1.60;;;;;;;18.75;100.00;96461.56;5030485;28;105233;-63